createdAt,value
2017-05-04T00:00:53.280Z,1009.13
2017-05-04T00:01:53.922Z,1009.01
2017-05-04T00:02:54.564Z,1008.95
2017-05-04T00:03:55.206Z,1008.89
2017-05-04T00:04:55.848Z,1008.88
2017-05-04T00:05:56.491Z,1008.96
2017-05-04T00:06:57.138Z,1008.94
2017-05-04T00:07:57.977Z,1008.92
2017-05-04T00:08:58.620Z,1008.92
2017-05-04T00:09:59.262Z,1008.80
2017-05-04T00:10:59.906Z,1008.80
2017-05-04T00:12:00.550Z,1008.81
2017-05-04T00:13:01.194Z,1008.71
2017-05-04T00:14:01.838Z,1008.79
2017-05-04T00:15:02.477Z,1008.71
2017-05-04T00:16:03.118Z,1008.65
2017-05-04T00:17:04.013Z,1008.65
2017-05-04T00:18:04.656Z,1008.59
2017-05-04T00:19:05.299Z,1008.65
2017-05-04T00:20:05.941Z,1008.60
2017-05-04T00:21:06.582Z,1008.64
2017-05-04T00:22:07.222Z,1008.59
2017-05-04T00:23:07.865Z,1008.68
2017-05-04T00:24:08.509Z,1008.68
2017-05-04T00:25:09.508Z,1008.70
2017-05-04T00:26:10.149Z,1008.66
2017-05-04T00:27:10.791Z,1008.71
2017-05-04T00:28:11.433Z,1008.71
2017-05-04T00:29:12.075Z,1008.70
2017-05-04T00:30:12.713Z,1008.68
2017-05-04T00:31:13.355Z,1008.65
2017-05-04T00:32:13.998Z,1008.70
2017-05-04T00:33:14.842Z,1008.70
2017-05-04T00:34:15.486Z,1008.76
2017-05-04T00:35:16.129Z,1008.72
2017-05-04T00:36:16.773Z,1008.72
2017-05-04T00:37:17.415Z,1008.70
2017-05-04T00:38:18.060Z,1008.69
2017-05-04T00:39:18.701Z,1008.67
2017-05-04T00:40:19.344Z,1008.70
2017-05-04T00:41:20.187Z,1008.69
2017-05-04T00:42:20.833Z,1008.70
2017-05-04T00:43:21.472Z,1008.76
2017-05-04T00:44:22.116Z,1008.66
2017-05-04T00:45:22.756Z,1008.67
2017-05-04T00:46:23.400Z,1008.66
2017-05-04T00:47:24.047Z,1008.70
2017-05-04T00:48:24.682Z,1008.59
2017-05-04T00:49:25.331Z,1008.66
2017-05-04T00:50:26.117Z,1008.66
2017-05-04T00:51:26.759Z,1008.63
2017-05-04T00:52:27.401Z,1008.66
2017-05-04T00:53:28.038Z,1008.62
2017-05-04T00:54:28.680Z,1008.64
2017-05-04T00:55:29.322Z,1008.61
2017-05-04T00:56:29.965Z,1008.55
2017-05-04T00:57:30.603Z,1008.53
2017-05-04T00:58:31.449Z,1008.65
2017-05-04T00:59:32.092Z,1008.64
2017-05-04T01:00:32.733Z,1008.63
2017-05-04T01:01:33.376Z,1008.58
2017-05-04T01:02:34.017Z,1008.64
2017-05-04T01:03:34.657Z,1008.65
2017-05-04T01:04:35.299Z,1008.65
2017-05-04T01:05:35.946Z,1008.67
2017-05-04T01:06:36.791Z,1008.64
2017-05-04T01:07:37.489Z,1008.65
2017-05-04T01:08:38.133Z,1008.65
2017-05-04T01:09:38.776Z,1008.77
2017-05-04T01:10:39.420Z,1008.81
2017-05-04T01:11:40.057Z,1008.79
2017-05-04T01:12:40.699Z,1008.80
2017-05-04T01:13:41.336Z,1008.76
2017-05-04T01:14:42.179Z,1008.69
2017-05-04T01:15:42.822Z,1008.70
2017-05-04T01:16:43.461Z,1008.57
2017-05-04T01:17:44.102Z,1008.57
2017-05-04T01:18:44.745Z,1008.58
2017-05-04T01:19:45.389Z,1008.63
2017-05-04T01:20:46.035Z,1008.57
2017-05-04T01:21:46.683Z,1008.54
2017-05-04T01:22:47.470Z,1008.61
2017-05-04T01:23:48.113Z,1008.63
2017-05-04T01:24:48.757Z,1008.48
2017-05-04T01:25:49.399Z,1008.50
2017-05-04T01:26:50.040Z,1008.47
2017-05-04T01:27:50.677Z,1008.47
2017-05-04T01:28:51.323Z,1008.51
2017-05-04T01:29:51.965Z,1008.46
2017-05-04T01:30:52.608Z,1008.44
2017-05-04T01:31:53.601Z,1008.49
2017-05-04T01:32:54.238Z,1008.41
2017-05-04T01:33:54.876Z,1008.55
2017-05-04T01:34:55.518Z,1008.51
2017-05-04T01:35:56.163Z,1008.45
2017-05-04T01:36:56.811Z,1008.43
2017-05-04T01:37:57.506Z,1008.50
2017-05-04T01:38:58.149Z,1008.52
2017-05-04T01:39:58.995Z,1008.42
2017-05-04T01:40:59.637Z,1008.39
2017-05-04T01:42:00.279Z,1008.42
2017-05-04T01:43:00.923Z,1008.38
2017-05-04T01:44:01.571Z,1008.36
2017-05-04T01:45:02.204Z,1008.35
2017-05-04T01:46:02.841Z,1008.31
2017-05-04T01:47:03.485Z,1008.31
2017-05-04T01:48:04.327Z,1008.43
2017-05-04T01:49:04.971Z,1008.41
2017-05-04T01:50:05.617Z,1008.41
2017-05-04T01:51:06.256Z,1008.43
2017-05-04T01:52:06.898Z,1008.43
2017-05-04T01:53:07.541Z,1008.47
2017-05-04T01:54:08.185Z,1008.60
2017-05-04T01:55:08.828Z,1008.62
2017-05-04T01:56:09.716Z,1008.57
2017-05-04T01:57:10.362Z,1008.59
2017-05-04T01:58:11.001Z,1008.58
2017-05-04T01:59:11.644Z,1008.64
2017-05-04T02:00:12.284Z,1008.57
2017-05-04T02:01:12.930Z,1008.59
2017-05-04T02:02:13.571Z,1008.54
2017-05-04T02:03:14.209Z,1008.51
2017-05-04T02:04:14.850Z,1008.52
2017-05-04T02:05:15.695Z,1008.48
2017-05-04T02:06:16.340Z,1008.53
2017-05-04T02:07:16.983Z,1008.58
2017-05-04T02:08:17.624Z,1008.54
2017-05-04T02:09:18.262Z,1008.61
2017-05-04T02:10:18.902Z,1008.51
2017-05-04T02:11:19.547Z,1008.47
2017-05-04T02:12:20.192Z,1008.35
2017-05-04T02:13:20.985Z,1008.37
2017-05-04T02:14:21.626Z,1008.42
2017-05-04T02:15:22.269Z,1008.45
2017-05-04T02:16:22.912Z,1008.46
2017-05-04T02:17:23.556Z,1008.46
2017-05-04T02:18:24.198Z,1008.48
2017-05-04T02:19:24.839Z,1008.53
2017-05-04T02:20:25.484Z,1008.49
2017-05-04T02:21:26.323Z,1008.45
2017-05-04T02:22:26.971Z,1008.56
2017-05-04T02:23:27.607Z,1008.54
2017-05-04T02:24:28.247Z,1008.61
2017-05-04T02:25:28.887Z,1008.64
2017-05-04T02:26:29.533Z,1008.62
2017-05-04T02:27:30.174Z,1008.60
2017-05-04T02:28:30.815Z,1008.63
2017-05-04T02:29:31.606Z,1008.68
2017-05-04T02:30:32.249Z,1008.62
2017-05-04T02:31:32.894Z,1008.56
2017-05-04T02:32:33.537Z,1008.61
2017-05-04T02:33:34.178Z,1008.60
2017-05-04T02:34:34.823Z,1008.63
2017-05-04T02:35:35.466Z,1008.60
2017-05-04T02:36:36.105Z,1008.64
2017-05-04T02:37:37.044Z,1008.62
2017-05-04T02:38:37.689Z,1008.62
2017-05-04T02:39:38.329Z,1008.67
2017-05-04T02:40:38.971Z,1008.68
2017-05-04T02:41:39.613Z,1008.69
2017-05-04T02:42:40.254Z,1008.63
2017-05-04T02:43:40.897Z,1008.68
2017-05-04T02:44:41.540Z,1008.61
2017-05-04T02:45:42.183Z,1008.70
2017-05-04T02:46:43.022Z,1008.66
2017-05-04T02:47:43.664Z,1008.73
2017-05-04T02:48:44.304Z,1008.68
2017-05-04T02:49:44.945Z,1008.73
2017-05-04T02:50:45.590Z,1008.68
2017-05-04T02:51:46.231Z,1008.70
2017-05-04T02:52:46.872Z,1008.70
2017-05-04T02:53:47.512Z,1008.70
2017-05-04T02:54:48.354Z,1008.69
2017-05-04T02:55:48.997Z,1008.72
2017-05-04T02:56:49.639Z,1008.69
2017-05-04T02:57:50.279Z,1008.71
2017-05-04T02:58:50.922Z,1008.73
2017-05-04T02:59:51.559Z,1008.70
2017-05-04T03:00:52.201Z,1008.74
2017-05-04T03:01:52.844Z,1008.72
2017-05-04T03:02:53.938Z,1008.68
2017-05-04T03:03:54.578Z,1008.76
2017-05-04T03:04:55.216Z,1008.76
2017-05-04T03:05:55.858Z,1008.74
2017-05-04T03:06:56.499Z,1008.81
2017-05-04T03:07:57.143Z,1008.80
2017-05-04T03:08:57.786Z,1008.87
2017-05-04T03:09:58.429Z,1008.90
2017-05-04T03:10:59.520Z,1008.81
2017-05-04T03:12:00.163Z,1008.83
2017-05-04T03:13:00.809Z,1008.90
2017-05-04T03:14:01.451Z,1008.89
2017-05-04T03:15:02.089Z,1008.85
2017-05-04T03:16:02.731Z,1008.85
2017-05-04T03:17:03.373Z,1008.92
2017-05-04T03:18:04.014Z,1008.95
2017-05-04T03:19:04.658Z,1008.87
2017-05-04T03:20:05.502Z,1008.86
2017-05-04T03:21:06.144Z,1008.92
2017-05-04T03:22:06.787Z,1008.90
2017-05-04T03:23:07.429Z,1008.87
2017-05-04T03:24:08.074Z,1008.90
2017-05-04T03:25:08.717Z,1008.93
2017-05-04T03:26:09.354Z,1008.90
2017-05-04T03:27:09.996Z,1008.89
2017-05-04T03:28:10.786Z,1008.94
2017-05-04T03:29:11.427Z,1008.94
2017-05-04T03:30:12.069Z,1008.95
2017-05-04T03:31:12.710Z,1008.96
2017-05-04T03:32:13.351Z,1008.94
2017-05-04T03:33:13.994Z,1008.89
2017-05-04T03:34:14.642Z,1008.92
2017-05-04T03:35:15.284Z,1008.93
2017-05-04T03:36:16.124Z,1008.91
2017-05-04T03:37:16.762Z,1008.98
2017-05-04T03:38:17.406Z,1008.88
2017-05-04T03:39:18.050Z,1008.79
2017-05-04T03:40:18.685Z,1008.88
2017-05-04T03:41:19.329Z,1008.81
2017-05-04T03:42:19.967Z,1008.90
2017-05-04T03:43:20.608Z,1008.89
2017-05-04T03:44:21.450Z,1008.95
2017-05-04T03:45:22.095Z,1008.86
2017-05-04T03:46:22.735Z,1008.91
2017-05-04T03:47:23.378Z,1008.88
2017-05-04T03:48:24.020Z,1008.85
2017-05-04T03:49:24.662Z,1008.81
2017-05-04T03:50:25.332Z,1008.87
2017-05-04T03:51:25.945Z,1008.81
2017-05-04T03:52:26.786Z,1008.81
2017-05-04T03:53:27.430Z,1008.81
2017-05-04T03:54:28.070Z,1008.78
2017-05-04T03:55:28.713Z,1008.78
2017-05-04T03:56:29.349Z,1008.75
2017-05-04T03:57:29.992Z,1008.78
2017-05-04T03:58:30.632Z,1008.75
2017-05-04T03:59:31.280Z,1008.64
2017-05-04T04:00:31.920Z,1008.57
2017-05-04T04:01:32.764Z,1008.62
2017-05-04T04:02:33.405Z,1008.52
2017-05-04T04:03:34.047Z,1008.54
2017-05-04T04:04:34.690Z,1008.48
2017-05-04T04:05:35.336Z,1008.38
2017-05-04T04:06:35.976Z,1008.34
2017-05-04T04:07:36.617Z,1008.27
2017-05-04T04:08:37.261Z,1008.34
2017-05-04T04:09:38.097Z,1008.32
2017-05-04T04:10:38.739Z,1008.27
2017-05-04T04:11:39.379Z,1008.32
2017-05-04T04:12:40.020Z,1008.31
2017-05-04T04:13:40.658Z,1008.32
2017-05-04T04:14:41.301Z,1008.33
2017-05-04T04:15:41.946Z,1008.31
2017-05-04T04:16:42.588Z,1008.24
2017-05-04T04:17:43.434Z,1008.30
2017-05-04T04:18:44.073Z,1008.29
2017-05-04T04:19:44.714Z,1008.29
2017-05-04T04:20:45.359Z,1008.29
2017-05-04T04:21:46.002Z,1008.35
2017-05-04T04:22:46.641Z,1008.31
2017-05-04T04:23:47.281Z,1008.24
2017-05-04T04:24:47.924Z,1008.24
2017-05-04T04:25:48.766Z,1008.19
2017-05-04T04:26:49.414Z,1008.15
2017-05-04T04:27:50.049Z,1008.19
2017-05-04T04:28:50.692Z,1008.29
2017-05-04T04:29:51.332Z,1008.27
2017-05-04T04:30:51.976Z,1008.34
2017-05-04T04:31:52.618Z,1008.35
2017-05-04T04:32:53.260Z,1008.30
2017-05-04T04:33:53.904Z,1008.35
2017-05-04T04:34:54.994Z,1008.31
2017-05-04T04:35:55.637Z,1008.32
2017-05-04T04:36:56.279Z,1008.37
2017-05-04T04:37:56.915Z,1008.48
2017-05-04T04:38:57.558Z,1008.51
2017-05-04T04:39:58.201Z,1008.47
2017-05-04T04:40:58.843Z,1008.42
2017-05-04T04:41:59.482Z,1008.40
2017-05-04T04:43:00.423Z,1008.30
2017-05-04T04:44:01.065Z,1008.26
2017-05-04T04:45:01.705Z,1008.18
2017-05-04T04:46:02.341Z,1008.17
2017-05-04T04:47:02.984Z,1008.25
2017-05-04T04:48:03.628Z,1008.27
2017-05-04T04:49:04.269Z,1008.37
2017-05-04T04:50:04.908Z,1008.34
2017-05-04T04:51:05.899Z,1008.39
2017-05-04T04:52:06.541Z,1008.36
2017-05-04T04:53:07.183Z,1008.39
2017-05-04T04:54:07.825Z,1008.36
2017-05-04T04:55:08.465Z,1008.32
2017-05-04T04:56:09.102Z,1008.32
2017-05-04T04:57:09.743Z,1008.31
2017-05-04T04:58:10.385Z,1008.25
2017-05-04T04:59:11.328Z,1008.22
2017-05-04T05:00:11.971Z,1008.18
2017-05-04T05:01:12.615Z,1008.18
2017-05-04T05:02:13.258Z,1008.05
2017-05-04T05:03:13.899Z,1008.03
2017-05-04T05:04:14.542Z,1008.02
2017-05-04T05:05:15.185Z,1008.03
2017-05-04T05:06:15.827Z,1008.00
2017-05-04T05:07:16.918Z,1008.03
2017-05-04T05:08:17.559Z,1007.97
2017-05-04T05:09:18.204Z,1007.95
2017-05-04T05:10:18.846Z,1007.92
2017-05-04T05:11:19.487Z,1007.84
2017-05-04T05:12:20.132Z,1007.91
2017-05-04T05:13:20.774Z,1007.96
2017-05-04T05:14:21.416Z,1007.95
2017-05-04T05:15:22.057Z,1008.01
2017-05-04T05:16:23.049Z,1008.01
2017-05-04T05:17:23.691Z,1008.00
2017-05-04T05:18:24.333Z,1008.00
2017-05-04T05:19:24.974Z,1008.00
2017-05-04T05:20:25.620Z,1007.99
2017-05-04T05:21:26.262Z,1007.96
2017-05-04T05:22:26.899Z,1007.98
2017-05-04T05:23:27.540Z,1007.94
2017-05-04T05:24:28.529Z,1008.00
2017-05-04T05:25:29.170Z,1007.98
2017-05-04T05:26:29.814Z,1007.91
2017-05-04T05:27:30.457Z,1007.90
2017-05-04T05:28:31.097Z,1007.95
2017-05-04T05:29:31.741Z,1007.86
2017-05-04T05:30:32.382Z,1007.85
2017-05-04T05:31:33.025Z,1007.79
2017-05-04T05:32:34.268Z,1007.84
2017-05-04T05:33:34.907Z,1007.74
2017-05-04T05:34:35.544Z,1007.79
2017-05-04T05:35:36.188Z,1007.75
2017-05-04T05:36:36.830Z,1007.72
2017-05-04T05:37:37.469Z,1007.79
2017-05-04T05:38:38.109Z,1007.81
2017-05-04T05:39:38.751Z,1007.82
2017-05-04T05:40:39.890Z,1007.79
2017-05-04T05:41:40.533Z,1007.79
2017-05-04T05:42:41.178Z,1007.81
2017-05-04T05:43:41.820Z,1007.73
2017-05-04T05:44:42.463Z,1007.84
2017-05-04T05:45:43.104Z,1007.87
2017-05-04T05:46:43.747Z,1007.84
2017-05-04T05:47:44.390Z,1007.85
2017-05-04T05:48:45.030Z,1007.89
2017-05-04T05:49:46.023Z,1007.85
2017-05-04T05:50:46.725Z,1007.85
2017-05-04T05:51:47.368Z,1007.87
2017-05-04T05:52:48.008Z,1007.87
2017-05-04T05:53:48.650Z,1007.91
2017-05-04T05:54:49.292Z,1007.88
2017-05-04T05:55:49.939Z,1007.97
2017-05-04T05:56:50.576Z,1007.95
2017-05-04T05:57:51.669Z,1007.95
2017-05-04T05:58:52.312Z,1007.99
2017-05-04T05:59:52.954Z,1008.04
2017-05-04T06:00:53.597Z,1008.10
2017-05-04T06:01:54.240Z,1008.24
2017-05-04T06:02:54.882Z,1008.26
2017-05-04T06:03:55.523Z,1008.29
2017-05-04T06:04:56.164Z,1008.30
2017-05-04T06:05:57.257Z,1008.24
2017-05-04T06:06:57.902Z,1008.12
2017-05-04T06:07:58.538Z,1008.09
2017-05-04T06:08:59.176Z,1008.12
2017-05-04T06:09:59.818Z,1008.19
2017-05-04T06:11:00.460Z,1008.19
2017-05-04T06:12:01.106Z,1008.11
2017-05-04T06:13:01.803Z,1008.13
2017-05-04T06:14:02.595Z,1008.07
2017-05-04T06:15:03.238Z,1008.03
2017-05-04T06:16:03.882Z,1008.09
2017-05-04T06:17:04.521Z,1008.09
2017-05-04T06:18:05.163Z,1008.12
2017-05-04T06:19:05.811Z,1008.23
2017-05-04T06:20:06.450Z,1008.20
2017-05-04T06:21:07.413Z,1008.28
2017-05-04T06:22:08.254Z,1008.33
2017-05-04T06:23:08.897Z,1008.35
2017-05-04T06:24:09.537Z,1008.37
2017-05-04T06:25:10.178Z,1008.27
2017-05-04T06:26:10.821Z,1008.28
2017-05-04T06:27:11.467Z,1008.30
2017-05-04T06:28:12.108Z,1008.32
2017-05-04T06:29:12.745Z,1008.20
2017-05-04T06:30:13.382Z,1008.16
2017-05-04T06:31:14.523Z,1008.27
2017-05-04T06:32:15.165Z,1008.20
2017-05-04T06:33:15.805Z,1008.27
2017-05-04T06:34:16.446Z,1008.28
2017-05-04T06:35:17.086Z,1008.34
2017-05-04T06:36:17.726Z,1008.28
2017-05-04T06:37:18.368Z,1008.36
2017-05-04T06:38:19.014Z,1008.30
2017-05-04T06:39:19.847Z,1008.32
2017-05-04T06:40:20.486Z,1008.35
2017-05-04T06:41:21.125Z,1008.36
2017-05-04T06:42:21.765Z,1008.31
2017-05-04T06:43:22.402Z,1008.32
2017-05-04T06:44:23.046Z,1008.30
2017-05-04T06:45:23.688Z,1008.25
2017-05-04T06:46:24.331Z,1008.19
2017-05-04T06:47:25.122Z,1008.22
2017-05-04T06:48:25.765Z,1008.22
2017-05-04T06:49:26.406Z,1008.21
2017-05-04T06:50:27.046Z,1008.17
2017-05-04T06:51:27.689Z,1008.17
2017-05-04T06:52:28.330Z,1008.21
2017-05-04T06:53:28.970Z,1008.20
2017-05-04T06:54:29.613Z,1008.14
2017-05-04T06:55:30.557Z,1008.16
2017-05-04T06:56:31.199Z,1008.11
2017-05-04T06:57:31.842Z,1008.09
2017-05-04T06:58:32.482Z,1008.13
2017-05-04T06:59:33.124Z,1008.23
2017-05-04T07:00:33.767Z,1008.14
2017-05-04T07:01:34.467Z,1008.12
2017-05-04T07:02:35.112Z,1008.12
2017-05-04T07:03:35.755Z,1008.11
2017-05-04T07:04:36.599Z,1008.12
2017-05-04T07:05:37.239Z,1008.06
2017-05-04T07:06:37.880Z,1008.10
2017-05-04T07:07:38.522Z,1008.06
2017-05-04T07:08:39.159Z,1008.03
2017-05-04T07:09:39.802Z,1008.04
2017-05-04T07:10:40.444Z,1008.13
2017-05-04T07:11:41.090Z,1008.10
2017-05-04T07:12:41.876Z,1008.03
2017-05-04T07:13:42.521Z,1008.07
2017-05-04T07:14:43.163Z,1008.10
2017-05-04T07:15:43.807Z,1008.07
2017-05-04T07:16:44.446Z,1007.96
2017-05-04T07:17:45.091Z,1007.97
2017-05-04T07:18:45.733Z,1007.97
2017-05-04T07:19:46.374Z,1007.98
2017-05-04T07:20:47.217Z,1007.98
2017-05-04T07:21:47.854Z,1007.88
2017-05-04T07:22:48.495Z,1007.92
2017-05-04T07:23:49.134Z,1007.89
2017-05-04T07:24:49.772Z,1007.94
2017-05-04T07:25:50.414Z,1007.86
2017-05-04T07:26:51.055Z,1007.90
2017-05-04T07:27:51.697Z,1007.78
2017-05-04T07:28:52.486Z,1007.80
2017-05-04T07:29:53.127Z,1007.78
2017-05-04T07:30:53.775Z,1007.86
2017-05-04T07:31:54.419Z,1007.84
2017-05-04T07:32:55.062Z,1007.76
2017-05-04T07:33:55.701Z,1007.85
2017-05-04T07:34:56.340Z,1007.78
2017-05-04T07:35:56.983Z,1007.87
2017-05-04T07:36:57.923Z,1007.90
2017-05-04T07:37:58.566Z,1007.87
2017-05-04T07:38:59.207Z,1007.95
2017-05-04T07:39:59.848Z,1007.89
2017-05-04T07:41:00.496Z,1007.81
2017-05-04T07:42:01.140Z,1007.82
2017-05-04T07:43:01.786Z,1007.78
2017-05-04T07:44:02.427Z,1007.84
2017-05-04T07:45:03.068Z,1007.82
2017-05-04T07:46:03.907Z,1007.80
2017-05-04T07:47:04.554Z,1007.80
2017-05-04T07:48:05.199Z,1007.76
2017-05-04T07:49:05.841Z,1007.76
2017-05-04T07:50:06.486Z,1007.77
2017-05-04T07:51:07.127Z,1007.69
2017-05-04T07:52:07.768Z,1007.76
2017-05-04T07:53:08.410Z,1007.64
2017-05-04T07:54:09.247Z,1007.69
2017-05-04T07:55:09.891Z,1007.67
2017-05-04T07:56:10.531Z,1007.64
2017-05-04T07:57:11.176Z,1007.65
2017-05-04T07:58:11.817Z,1007.67
2017-05-04T07:59:12.462Z,1007.60
2017-05-04T08:00:13.108Z,1007.54
2017-05-04T08:01:13.751Z,1007.62
2017-05-04T08:02:14.594Z,1007.58
2017-05-04T08:03:15.238Z,1007.55
2017-05-04T08:04:15.882Z,1007.55
2017-05-04T08:05:16.522Z,1007.57
2017-05-04T08:06:17.165Z,1007.57
2017-05-04T08:07:17.812Z,1007.67
2017-05-04T08:08:18.456Z,1007.71
2017-05-04T08:09:19.092Z,1007.61
2017-05-04T08:10:19.930Z,1007.56
2017-05-04T08:11:20.576Z,1007.61
2017-05-04T08:12:21.220Z,1007.54
2017-05-04T08:13:21.863Z,1007.54
2017-05-04T08:14:22.501Z,1007.59
2017-05-04T08:15:23.147Z,1007.58
2017-05-04T08:16:23.789Z,1007.66
2017-05-04T08:17:24.431Z,1007.64
2017-05-04T08:18:25.071Z,1007.66
2017-05-04T08:19:25.922Z,1007.71
2017-05-04T08:20:26.559Z,1007.71
2017-05-04T08:21:27.202Z,1007.71
2017-05-04T08:22:27.843Z,1007.72
2017-05-04T08:23:28.487Z,1007.67
2017-05-04T08:24:29.127Z,1007.62
2017-05-04T08:25:29.772Z,1007.63
2017-05-04T08:26:30.412Z,1007.66
2017-05-04T08:27:31.203Z,1007.61
2017-05-04T08:28:31.847Z,1007.49
2017-05-04T08:29:32.488Z,1007.50
2017-05-04T08:30:33.129Z,1007.51
2017-05-04T08:31:33.772Z,1007.52
2017-05-04T08:32:34.414Z,1007.49
2017-05-04T08:33:35.054Z,1007.40
2017-05-04T08:34:35.700Z,1007.40
2017-05-04T08:35:36.643Z,1007.46
2017-05-04T08:36:37.291Z,1007.44
2017-05-04T08:37:37.941Z,1007.34
2017-05-04T08:38:38.574Z,1007.38
2017-05-04T08:39:39.218Z,1007.35
2017-05-04T08:40:39.860Z,1007.41
2017-05-04T08:41:40.503Z,1007.36
2017-05-04T08:42:41.148Z,1007.36
2017-05-04T08:43:41.993Z,1007.30
2017-05-04T08:44:42.635Z,1007.34
2017-05-04T08:45:43.277Z,1007.32
2017-05-04T08:46:43.923Z,1007.36
2017-05-04T08:47:44.568Z,1007.38
2017-05-04T08:48:45.209Z,1007.32
2017-05-04T08:49:45.851Z,1007.36
2017-05-04T08:50:46.491Z,1007.34
2017-05-04T08:51:47.436Z,1007.37
2017-05-04T08:52:48.073Z,1007.33
2017-05-04T08:53:48.716Z,1007.35
2017-05-04T08:54:49.355Z,1007.35
2017-05-04T08:55:49.998Z,1007.38
2017-05-04T08:56:50.649Z,1007.36
2017-05-04T08:57:51.284Z,1007.33
2017-05-04T08:58:51.928Z,1007.32
2017-05-04T08:59:52.571Z,1007.33
2017-05-04T09:00:53.363Z,1007.30
2017-05-04T09:01:54.021Z,1007.36
2017-05-04T09:02:54.650Z,1007.31
2017-05-04T09:03:55.292Z,1007.32
2017-05-04T09:04:55.935Z,1007.24
2017-05-04T09:05:56.581Z,1007.28
2017-05-04T09:06:57.225Z,1007.24
2017-05-04T09:07:57.871Z,1007.23
2017-05-04T09:08:58.870Z,1007.24
2017-05-04T09:09:59.516Z,1007.21
2017-05-04T09:11:00.153Z,1007.16
2017-05-04T09:12:00.798Z,1007.17
2017-05-04T09:13:01.444Z,1007.22
2017-05-04T09:14:02.089Z,1007.23
2017-05-04T09:15:02.728Z,1007.15
2017-05-04T09:16:03.363Z,1007.23
2017-05-04T09:17:04.302Z,1007.24
2017-05-04T09:18:04.948Z,1007.25
2017-05-04T09:19:05.591Z,1007.32
2017-05-04T09:20:06.233Z,1007.27
2017-05-04T09:21:06.873Z,1007.30
2017-05-04T09:22:07.517Z,1007.27
2017-05-04T09:23:08.220Z,1007.32
2017-05-04T09:24:08.856Z,1007.28
2017-05-04T09:25:09.696Z,1007.40
2017-05-04T09:26:10.344Z,1007.31
2017-05-04T09:27:10.981Z,1007.34
2017-05-04T09:28:11.622Z,1007.38
2017-05-04T09:29:12.263Z,1007.30
2017-05-04T09:30:12.907Z,1007.28
2017-05-04T09:31:13.549Z,1007.26
2017-05-04T09:32:14.194Z,1007.34
2017-05-04T09:33:14.838Z,1007.48
2017-05-04T09:34:15.633Z,1007.32
2017-05-04T09:35:16.277Z,1007.31
2017-05-04T09:36:16.916Z,1007.31
2017-05-04T09:37:17.560Z,1007.28
2017-05-04T09:38:18.205Z,1007.30
2017-05-04T09:39:18.847Z,1007.28
2017-05-04T09:40:19.493Z,1007.34
2017-05-04T09:41:20.456Z,1007.31
2017-05-04T09:42:21.302Z,1007.38
2017-05-04T09:43:21.943Z,1007.29
2017-05-04T09:44:22.584Z,1007.36
2017-05-04T09:45:23.224Z,1007.30
2017-05-04T09:46:23.867Z,1007.27
2017-05-04T09:47:24.512Z,1007.27
2017-05-04T09:48:25.156Z,1007.36
2017-05-04T09:49:25.799Z,1007.36
2017-05-04T09:50:26.638Z,1007.32
2017-05-04T09:51:27.285Z,1007.34
2017-05-04T09:52:27.930Z,1007.29
2017-05-04T09:53:28.575Z,1007.40
2017-05-04T09:54:29.219Z,1007.29
2017-05-04T09:55:29.860Z,1007.37
2017-05-04T09:56:30.506Z,1007.30
2017-05-04T09:57:31.149Z,1007.33
2017-05-04T09:58:31.888Z,1007.39
2017-05-04T09:59:32.530Z,1007.32
2017-05-04T10:00:33.173Z,1007.32
2017-05-04T10:01:33.815Z,1007.37
2017-05-04T10:02:34.458Z,1007.36
2017-05-04T10:03:35.097Z,1007.40
2017-05-04T10:04:35.741Z,1007.43
2017-05-04T10:05:36.389Z,1007.33
2017-05-04T10:06:37.226Z,1007.34
2017-05-04T10:07:37.872Z,1007.28
2017-05-04T10:08:38.521Z,1007.35
2017-05-04T10:09:39.160Z,1007.33
2017-05-04T10:10:39.809Z,1007.27
2017-05-04T10:11:40.446Z,1007.31
2017-05-04T10:12:41.084Z,1007.29
2017-05-04T10:13:41.727Z,1007.26
2017-05-04T10:14:42.373Z,1007.19
2017-05-04T10:15:43.217Z,1007.25
2017-05-04T10:16:43.859Z,1007.32
2017-05-04T10:17:44.502Z,1007.31
2017-05-04T10:18:45.143Z,1007.27
2017-05-04T10:19:45.784Z,1007.32
2017-05-04T10:20:46.429Z,1007.39
2017-05-04T10:21:47.074Z,1007.27
2017-05-04T10:22:47.717Z,1007.37
2017-05-04T10:23:48.563Z,1007.39
2017-05-04T10:24:49.211Z,1007.37
2017-05-04T10:25:49.854Z,1007.35
2017-05-04T10:26:50.499Z,1007.39
2017-05-04T10:27:51.144Z,1007.45
2017-05-04T10:28:51.793Z,1007.47
2017-05-04T10:29:52.441Z,1007.49
2017-05-04T10:30:53.091Z,1007.46
2017-05-04T10:31:53.889Z,1007.39
2017-05-04T10:32:54.538Z,1007.28
2017-05-04T10:33:55.184Z,1007.38
2017-05-04T10:34:55.830Z,1007.41
2017-05-04T10:35:56.478Z,1007.38
2017-05-04T10:36:57.126Z,1007.37
2017-05-04T10:37:57.774Z,1007.33
2017-05-04T10:38:58.417Z,1007.43
2017-05-04T10:39:59.266Z,1007.42
2017-05-04T10:40:59.918Z,1007.30
2017-05-04T10:42:00.568Z,1007.40
2017-05-04T10:43:01.215Z,1007.42
2017-05-04T10:44:01.860Z,1007.42
2017-05-04T10:45:02.510Z,1007.41
2017-05-04T10:46:03.154Z,1007.47
2017-05-04T10:47:03.801Z,1007.38
2017-05-04T10:48:04.450Z,1007.49
2017-05-04T10:49:05.298Z,1007.39
2017-05-04T10:50:05.945Z,1007.31
2017-05-04T10:51:06.590Z,1007.30
2017-05-04T10:52:07.235Z,1007.36
2017-05-04T10:53:07.886Z,1007.29
2017-05-04T10:54:08.535Z,1007.49
2017-05-04T10:55:09.192Z,1007.40
2017-05-04T10:56:09.836Z,1007.46
2017-05-04T10:57:10.836Z,1007.59
2017-05-04T10:58:11.485Z,1007.52
2017-05-04T10:59:12.134Z,1007.45
2017-05-04T11:00:12.783Z,1007.46
2017-05-04T11:01:13.431Z,1007.50
2017-05-04T11:02:14.082Z,1007.55
2017-05-04T11:03:14.730Z,1007.55
2017-05-04T11:04:15.382Z,1007.49
2017-05-04T11:05:16.288Z,1007.47
2017-05-04T11:06:16.937Z,1007.49
2017-05-04T11:07:17.589Z,1007.50
2017-05-04T11:08:18.237Z,1007.47
2017-05-04T11:09:18.887Z,1007.39
2017-05-04T11:10:19.541Z,1007.45
2017-05-04T11:11:20.246Z,1007.40
2017-05-04T11:12:20.896Z,1007.31
2017-05-04T11:13:21.747Z,1007.35
2017-05-04T11:14:22.399Z,1007.37
2017-05-04T11:15:23.049Z,1007.41
2017-05-04T11:16:23.700Z,1007.51
2017-05-04T11:17:24.351Z,1007.54
2017-05-04T11:18:25.001Z,1007.42
2017-05-04T11:19:25.649Z,1007.54
2017-05-04T11:20:26.304Z,1007.42
2017-05-04T11:21:27.158Z,1007.42
2017-05-04T11:22:27.818Z,1007.42
2017-05-04T11:23:28.461Z,1007.49
2017-05-04T11:24:29.110Z,1007.48
2017-05-04T11:25:29.759Z,1007.45
2017-05-04T11:26:30.411Z,1007.61
2017-05-04T11:27:31.064Z,1007.61
2017-05-04T11:28:31.709Z,1007.63
2017-05-04T11:29:32.362Z,1007.61
2017-05-04T11:30:33.268Z,1007.51
2017-05-04T11:31:33.920Z,1007.44
2017-05-04T11:32:34.576Z,1007.51
2017-05-04T11:33:35.231Z,1007.53
2017-05-04T11:34:35.886Z,1007.47
2017-05-04T11:35:36.538Z,1007.71
2017-05-04T11:36:37.190Z,1007.69
2017-05-04T11:37:37.845Z,1007.50
2017-05-04T11:38:38.843Z,1007.45
2017-05-04T11:39:39.495Z,1007.56
2017-05-04T11:40:40.146Z,1007.52
2017-05-04T11:41:40.799Z,1007.45
2017-05-04T11:42:41.455Z,1007.50
2017-05-04T11:43:42.430Z,1007.66
2017-05-04T11:44:43.087Z,1007.61
2017-05-04T11:45:43.736Z,1007.49
2017-05-04T11:46:44.542Z,1007.35
2017-05-04T11:47:45.196Z,1007.41
2017-05-04T11:48:45.851Z,1007.39
2017-05-04T11:49:46.506Z,1007.45
2017-05-04T11:50:47.162Z,1007.41
2017-05-04T11:51:47.820Z,1007.50
2017-05-04T11:52:48.474Z,1007.44
2017-05-04T11:53:49.132Z,1007.41
2017-05-04T11:54:50.036Z,1007.39
2017-05-04T11:55:50.697Z,1007.57
2017-05-04T11:56:51.349Z,1007.39
2017-05-04T11:57:52.005Z,1007.41
2017-05-04T11:58:52.658Z,1007.52
2017-05-04T11:59:53.309Z,1007.46
2017-05-04T12:00:53.966Z,1007.27
2017-05-04T12:01:54.622Z,1007.52
2017-05-04T12:02:55.279Z,1007.33
2017-05-04T12:03:56.136Z,1007.39
2017-05-04T12:04:56.792Z,1007.39
2017-05-04T12:05:57.446Z,1007.37
2017-05-04T12:06:58.102Z,1007.34
2017-05-04T12:07:58.762Z,1007.42
2017-05-04T12:08:59.417Z,1007.37
2017-05-04T12:10:00.076Z,1007.35
2017-05-04T12:11:00.726Z,1007.51
2017-05-04T12:12:01.584Z,1007.44
2017-05-04T12:13:02.237Z,1007.52
2017-05-04T12:14:02.894Z,1007.31